sensor_id;sensor_type;location;lat;lon;timestamp;pressure;altitude;pressure_sealevel;temperature;humidity
23419;BME280;11882;42.522;27.458;2023-12-20T00:02:19;101682.03;;;4.34;100.00
23419;BME280;11882;42.522;27.458;2023-12-20T00:04:46;101676.44;;;4.14;100.00
23419;BME280;11882;42.522;27.458;2023-12-20T00:07:13;101674.66;;;4.15;100.00
23419;BME280;11882;42.522;27.458;2023-12-20T00:09:40;101675.03;;;4.21;100.00
23419;BME280;11882;42.522;27.458;2023-12-20T00:12:08;101680.19;;;4.23;100.00
23419;BME280;11882;42.522;27.458;2023-12-20T00:14:35;101677.44;;;4.25;100.00
23419;BME280;11882;42.522;27.458;2023-12-20T00:17:04;101675.59;;;4.14;100.00
23419;BME280;11882;42.522;27.458;2023-12-20T00:19:31;101665.63;;;4.06;100.00
23419;BME280;11882;42.522;27.458;2023-12-20T00:21:58;101667.31;;;4.07;100.00
23419;BME280;11882;42.522;27.458;2023-12-20T00:24:26;101659.84;;;4.01;100.00
23419;BME280;11882;42.522;27.458;2023-12-20T00:26:53;101658.28;;;3.99;100.00
23419;BME280;11882;42.522;27.458;2023-12-20T00:29:20;101652.28;;;3.97;100.00
23419;BME280;11882;42.522;27.458;2023-12-20T00:31:47;101649.09;;;4.04;100.00
23419;BME280;11882;42.522;27.458;2023-12-20T00:34:16;101647.19;;;4.06;100.00
23419;BME280;11882;42.522;27.458;2023-12-20T00:36:43;101636.66;;;4.06;100.00
23419;BME280;11882;42.522;27.458;2023-12-20T00:39:10;101640.00;;;4.08;100.00
23419;BME280;11882;42.522;27.458;2023-12-20T00:41:37;101634.44;;;4.24;100.00
23419;BME280;11882;42.522;27.458;2023-12-20T00:44:05;101633.22;;;4.52;100.00
23419;BME280;11882;42.522;27.458;2023-12-20T00:46:32;101621.63;;;4.54;100.00
23419;BME280;11882;42.522;27.458;2023-12-20T00:48:59;101619.78;;;4.44;100.00
23419;BME280;11882;42.522;27.458;2023-12-20T00:51:28;101614.38;;;4.34;100.00
23419;BME280;11882;42.522;27.458;2023-12-20T00:53:55;101609.41;;;4.18;100.00
23419;BME280;11882;42.522;27.458;2023-12-20T00:56:22;101614.41;;;4.10;100.00
23419;BME280;11882;42.522;27.458;2023-12-20T00:58:49;101610.59;;;4.14;100.00
23419;BME280;11882;42.522;27.458;2023-12-20T01:01:16;101601.69;;;4.04;100.00
23419;BME280;11882;42.522;27.458;2023-12-20T01:03:44;101597.59;;;4.00;100.00
23419;BME280;11882;42.522;27.458;2023-12-20T01:06:11;101600.75;;;4.05;100.00
23419;BME280;11882;42.522;27.458;2023-12-20T01:08:39;101592.00;;;4.05;100.00
23419;BME280;11882;42.522;27.458;2023-12-20T01:11:07;101596.03;;;3.98;100.00
23419;BME280;11882;42.522;27.458;2023-12-20T01:13:34;101592.13;;;4.03;100.00
23419;BME280;11882;42.522;27.458;2023-12-20T01:16:02;101586.34;;;3.98;100.00
23419;BME280;11882;42.522;27.458;2023-12-20T01:18:29;101592.06;;;3.92;100.00
23419;BME280;11882;42.522;27.458;2023-12-20T01:20:56;101583.00;;;3.96;100.00
23419;BME280;11882;42.522;27.458;2023-12-20T01:23:27;101585.63;;;3.96;100.00
23419;BME280;11882;42.522;27.458;2023-12-20T01:25:56;101579.25;;;3.87;100.00
23419;BME280;11882;42.522;27.458;2023-12-20T01:28:25;101578.94;;;4.03;100.00
23419;BME280;11882;42.522;27.458;2023-12-20T01:30:52;101573.25;;;4.20;100.00
23419;BME280;11882;42.522;27.458;2023-12-20T01:33:19;101564.78;;;3.93;100.00
23419;BME280;11882;42.522;27.458;2023-12-20T01:35:46;101559.69;;;3.79;100.00
23419;BME280;11882;42.522;27.458;2023-12-20T01:38:13;101559.59;;;3.80;100.00
23419;BME280;11882;42.522;27.458;2023-12-20T01:40:44;101553.44;;;3.69;100.00
23419;BME280;11882;42.522;27.458;2023-12-20T01:43:13;101551.56;;;3.82;100.00
23419;BME280;11882;42.522;27.458;2023-12-20T01:45:40;101544.75;;;3.79;100.00
23419;BME280;11882;42.522;27.458;2023-12-20T01:48:08;101546.00;;;3.63;100.00
23419;BME280;11882;42.522;27.458;2023-12-20T01:50:36;101542.13;;;3.55;100.00
23419;BME280;11882;42.522;27.458;2023-12-20T01:53:05;101541.91;;;3.59;100.00
23419;BME280;11882;42.522;27.458;2023-12-20T01:55:37;101541.69;;;3.62;100.00
23419;BME280;11882;42.522;27.458;2023-12-20T01:58:06;101541.91;;;3.59;100.00
23419;BME280;11882;42.522;27.458;2023-12-20T02:00:35;101540.84;;;3.61;100.00
23419;BME280;11882;42.522;27.458;2023-12-20T02:03:03;101537.47;;;3.59;100.00
23419;BME280;11882;42.522;27.458;2023-12-20T02:05:31;101538.09;;;3.63;100.00
23419;BME280;11882;42.522;27.458;2023-12-20T02:07:58;101535.50;;;3.74;100.00
23419;BME280;11882;42.522;27.458;2023-12-20T02:10:25;101524.47;;;3.69;100.00
23419;BME280;11882;42.522;27.458;2023-12-20T02:12:53;101510.03;;;3.74;100.00
23419;BME280;11882;42.522;27.458;2023-12-20T02:15:20;101504.91;;;3.84;100.00
23419;BME280;11882;42.522;27.458;2023-12-20T02:17:49;101511.47;;;4.13;100.00
23419;BME280;11882;42.522;27.458;2023-12-20T02:20:17;101504.78;;;4.20;100.00
23419;BME280;11882;42.522;27.458;2023-12-20T02:22:45;101496.63;;;4.24;100.00
23419;BME280;11882;42.522;27.458;2023-12-20T02:25:12;101501.84;;;4.01;100.00
23419;BME280;11882;42.522;27.458;2023-12-20T02:27:40;101500.16;;;3.89;100.00
23419;BME280;11882;42.522;27.458;2023-12-20T02:30:07;101501.09;;;3.88;100.00
23419;BME280;11882;42.522;27.458;2023-12-20T02:32:35;101488.16;;;3.85;100.00
23419;BME280;11882;42.522;27.458;2023-12-20T02:35:02;101491.88;;;3.82;100.00
23419;BME280;11882;42.522;27.458;2023-12-20T02:37:29;101489.53;;;3.67;100.00
23419;BME280;11882;42.522;27.458;2023-12-20T02:39:58;101491.34;;;3.66;100.00
23419;BME280;11882;42.522;27.458;2023-12-20T02:42:25;101492.13;;;3.55;100.00
23419;BME280;11882;42.522;27.458;2023-12-20T02:44:52;101487.22;;;3.51;100.00
23419;BME280;11882;42.522;27.458;2023-12-20T02:47:20;101488.06;;;3.51;100.00
23419;BME280;11882;42.522;27.458;2023-12-20T02:49:47;101483.50;;;3.53;100.00
23419;BME280;11882;42.522;27.458;2023-12-20T02:52:14;101479.66;;;3.46;100.00
23419;BME280;11882;42.522;27.458;2023-12-20T02:54:41;101480.09;;;3.40;100.00
23419;BME280;11882;42.522;27.458;2023-12-20T02:57:10;101478.25;;;3.53;100.00
23419;BME280;11882;42.522;27.458;2023-12-20T02:59:37;101472.75;;;3.56;100.00
23419;BME280;11882;42.522;27.458;2023-12-20T03:02:04;101474.94;;;3.63;100.00
23419;BME280;11882;42.522;27.458;2023-12-20T03:04:32;101473.81;;;3.54;100.00
23419;BME280;11882;42.522;27.458;2023-12-20T03:06:59;101479.97;;;3.66;100.00
23419;BME280;11882;42.522;27.458;2023-12-20T03:09:26;101469.28;;;3.91;100.00
23419;BME280;11882;42.522;27.458;2023-12-20T03:11:53;101470.13;;;3.92;100.00
23419;BME280;11882;42.522;27.458;2023-12-20T03:14:22;101464.91;;;3.68;100.00
23419;BME280;11882;42.522;27.458;2023-12-20T03:16:50;101459.88;;;3.65;100.00
23419;BME280;11882;42.522;27.458;2023-12-20T03:19:18;101458.75;;;3.56;100.00
23419;BME280;11882;42.522;27.458;2023-12-20T03:21:45;101460.78;;;3.52;100.00
23419;BME280;11882;42.522;27.458;2023-12-20T03:24:12;101463.47;;;3.40;100.00
23419;BME280;11882;42.522;27.458;2023-12-20T03:26:40;101464.53;;;3.37;100.00
23419;BME280;11882;42.522;27.458;2023-12-20T03:29:07;101457.44;;;3.27;100.00
23419;BME280;11882;42.522;27.458;2023-12-20T03:31:35;101457.00;;;3.09;100.00
23419;BME280;11882;42.522;27.458;2023-12-20T03:34:03;101444.56;;;3.11;100.00
23419;BME280;11882;42.522;27.458;2023-12-20T03:36:30;101445.75;;;3.31;100.00
23419;BME280;11882;42.522;27.458;2023-12-20T03:38:57;101448.19;;;3.45;100.00
23419;BME280;11882;42.522;27.458;2023-12-20T03:41:24;101448.53;;;3.40;100.00
23419;BME280;11882;42.522;27.458;2023-12-20T03:43:51;101446.19;;;3.48;100.00
23419;BME280;11882;42.522;27.458;2023-12-20T03:46:19;101445.91;;;3.40;100.00
23419;BME280;11882;42.522;27.458;2023-12-20T03:48:47;101433.03;;;3.48;100.00
23419;BME280;11882;42.522;27.458;2023-12-20T03:51:14;101432.06;;;3.49;100.00
23419;BME280;11882;42.522;27.458;2023-12-20T03:53:41;101428.63;;;3.60;100.00
23419;BME280;11882;42.522;27.458;2023-12-20T03:56:09;101426.50;;;3.30;100.00
23419;BME280;11882;42.522;27.458;2023-12-20T03:58:36;101429.31;;;3.51;100.00
23419;BME280;11882;42.522;27.458;2023-12-20T04:01:03;101425.84;;;3.97;100.00
23419;BME280;11882;42.522;27.458;2023-12-20T04:03:35;101422.97;;;3.88;100.00
23419;BME280;11882;42.522;27.458;2023-12-20T04:06:04;101419.44;;;3.66;100.00
23419;BME280;11882;42.522;27.458;2023-12-20T04:08:31;101429.59;;;3.59;100.00
23419;BME280;11882;42.522;27.458;2023-12-20T04:10:58;101428.84;;;3.46;100.00
23419;BME280;11882;42.522;27.458;2023-12-20T04:13:26;101429.72;;;3.58;100.00
23419;BME280;11882;42.522;27.458;2023-12-20T04:15:53;101427.34;;;3.66;100.00
23419;BME280;11882;42.522;27.458;2023-12-20T04:18:20;101423.63;;;3.68;100.00
23419;BME280;11882;42.522;27.458;2023-12-20T04:20:47;101413.25;;;3.78;100.00
23419;BME280;11882;42.522;27.458;2023-12-20T04:23:16;101417.53;;;3.68;100.00
23419;BME280;11882;42.522;27.458;2023-12-20T04:25:43;101415.44;;;3.49;100.00
23419;BME280;11882;42.522;27.458;2023-12-20T04:28:10;101421.06;;;3.44;100.00
23419;BME280;11882;42.522;27.458;2023-12-20T04:30:37;101416.91;;;3.53;100.00
23419;BME280;11882;42.522;27.458;2023-12-20T04:33:05;101416.75;;;3.43;100.00
23419;BME280;11882;42.522;27.458;2023-12-20T04:35:32;101416.91;;;3.53;100.00
23419;BME280;11882;42.522;27.458;2023-12-20T04:37:59;101410.72;;;3.65;100.00
23419;BME280;11882;42.522;27.458;2023-12-20T04:40:28;101420.41;;;3.65;100.00
23419;BME280;11882;42.522;27.458;2023-12-20T04:42:55;101420.84;;;3.59;100.00
23419;BME280;11882;42.522;27.458;2023-12-20T04:45:22;101423.72;;;3.55;100.00
23419;BME280;11882;42.522;27.458;2023-12-20T04:47:51;101416.31;;;3.61;100.00
23419;BME280;11882;42.522;27.458;2023-12-20T04:50:19;101411.31;;;3.69;100.00
23419;BME280;11882;42.522;27.458;2023-12-20T04:52:47;101406.19;;;3.78;100.00
23419;BME280;11882;42.522;27.458;2023-12-20T04:55:14;101404.06;;;3.95;100.00
23419;BME280;11882;42.522;27.458;2023-12-20T04:57:43;101402.09;;;3.63;100.00
23419;BME280;11882;42.522;27.458;2023-12-20T05:00:11;101403.16;;;3.61;100.00
23419;BME280;11882;42.522;27.458;2023-12-20T05:02:39;101403.25;;;3.48;100.00
23419;BME280;11882;42.522;27.458;2023-12-20T05:05:07;101399.28;;;3.42;100.00
23419;BME280;11882;42.522;27.458;2023-12-20T05:07:35;101394.03;;;3.42;100.00
23419;BME280;11882;42.522;27.458;2023-12-20T05:10:02;101397.94;;;3.37;100.00
23419;BME280;11882;42.522;27.458;2023-12-20T05:12:30;101385.03;;;3.34;100.00
23419;BME280;11882;42.522;27.458;2023-12-20T05:14:58;101382.63;;;3.31;100.00
23419;BME280;11882;42.522;27.458;2023-12-20T05:17:27;101393.25;;;3.29;100.00
23419;BME280;11882;42.522;27.458;2023-12-20T05:19:54;101387.00;;;3.19;100.00
23419;BME280;11882;42.522;27.458;2023-12-20T05:22:21;101385.66;;;3.13;100.00
23419;BME280;11882;42.522;27.458;2023-12-20T05:24:48;101378.94;;;3.09;100.00
23419;BME280;11882;42.522;27.458;2023-12-20T05:27:15;101385.06;;;3.10;100.00
23419;BME280;11882;42.522;27.458;2023-12-20T05:29:43;101383.41;;;3.20;100.00
23419;BME280;11882;42.522;27.458;2023-12-20T05:32:11;101384.88;;;3.24;100.00
23419;BME280;11882;42.522;27.458;2023-12-20T05:34:38;101382.63;;;3.31;100.00
23419;BME280;11882;42.522;27.458;2023-12-20T05:37:05;101378.94;;;3.33;100.00
23419;BME280;11882;42.522;27.458;2023-12-20T05:39:33;101377.81;;;3.24;100.00
23419;BME280;11882;42.522;27.458;2023-12-20T05:42:00;101378.84;;;3.46;100.00
23419;BME280;11882;42.522;27.458;2023-12-20T05:44:27;101369.41;;;3.54;100.00
23419;BME280;11882;42.522;27.458;2023-12-20T05:46:54;101380.59;;;3.34;100.00
23419;BME280;11882;42.522;27.458;2023-12-20T05:49:23;101382.34;;;3.22;100.00
23419;BME280;11882;42.522;27.458;2023-12-20T05:51:50;101377.56;;;3.16;100.00
23419;BME280;11882;42.522;27.458;2023-12-20T05:54:17;101376.75;;;3.27;100.00
23419;BME280;11882;42.522;27.458;2023-12-20T05:56:44;101383.19;;;3.23;100.00
23419;BME280;11882;42.522;27.458;2023-12-20T05:59:11;101383.88;;;3.14;100.00
23419;BME280;11882;42.522;27.458;2023-12-20T06:01:39;101372.41;;;3.15;100.00
23419;BME280;11882;42.522;27.458;2023-12-20T06:04:06;101386.44;;;3.27;100.00
23419;BME280;11882;42.522;27.458;2023-12-20T06:06:40;101379.94;;;3.19;100.00
23419;BME280;11882;42.522;27.458;2023-12-20T06:09:07;101381.28;;;3.25;100.00
23419;BME280;11882;42.522;27.458;2023-12-20T06:11:35;101375.34;;;3.34;100.00
23419;BME280;11882;42.522;27.458;2023-12-20T06:14:02;101377.25;;;3.32;100.00
23419;BME280;11882;42.522;27.458;2023-12-20T06:16:29;101376.84;;;3.61;100.00
23419;BME280;11882;42.522;27.458;2023-12-20T06:18:56;101376.53;;;3.87;100.00
23419;BME280;11882;42.522;27.458;2023-12-20T06:21:24;101386.72;;;4.14;100.00
23419;BME280;11882;42.522;27.458;2023-12-20T06:23:52;101388.38;;;4.49;100.00
23419;BME280;11882;42.522;27.458;2023-12-20T06:26:20;101393.69;;;4.92;100.00
23419;BME280;11882;42.522;27.458;2023-12-20T06:28:47;101388.75;;;4.99;99.92
23419;BME280;11882;42.522;27.458;2023-12-20T06:31:15;101393.31;;;4.97;98.45
23419;BME280;11882;42.522;27.458;2023-12-20T06:33:42;101387.09;;;4.86;97.68
23419;BME280;11882;42.522;27.458;2023-12-20T06:36:11;101381.28;;;5.04;95.91
23419;BME280;11882;42.522;27.458;2023-12-20T06:38:39;101378.28;;;5.08;96.59
23419;BME280;11882;42.522;27.458;2023-12-20T06:41:13;101375.56;;;4.99;95.29
23419;BME280;11882;42.522;27.458;2023-12-20T06:43:40;101377.19;;;5.11;95.71
23419;BME280;11882;42.522;27.458;2023-12-20T06:46:08;101378.63;;;5.15;95.33
23419;BME280;11882;42.522;27.458;2023-12-20T06:48:35;101381.25;;;5.26;95.06
23419;BME280;11882;42.522;27.458;2023-12-20T06:51:02;101374.44;;;5.65;94.42
23419;BME280;11882;42.522;27.458;2023-12-20T06:53:29;101371.03;;;5.54;95.72
23419;BME280;11882;42.522;27.458;2023-12-20T06:55:57;101369.25;;;5.22;95.24
23419;BME280;11882;42.522;27.458;2023-12-20T06:58:25;101367.22;;;4.82;95.94
23419;BME280;11882;42.522;27.458;2023-12-20T07:00:53;101374.34;;;4.60;96.10
23419;BME280;11882;42.522;27.458;2023-12-20T07:03:20;101359.88;;;4.43;97.71
23419;BME280;11882;42.522;27.458;2023-12-20T07:05:47;101365.50;;;4.38;98.39
23419;BME280;11882;42.522;27.458;2023-12-20T07:08:14;101352.47;;;4.37;98.38
23419;BME280;11882;42.522;27.458;2023-12-20T07:10:41;101357.09;;;4.56;99.05
23419;BME280;11882;42.522;27.458;2023-12-20T07:13:09;101359.81;;;4.76;98.16
23419;BME280;11882;42.522;27.458;2023-12-20T07:15:38;101343.00;;;5.21;98.09
23419;BME280;11882;42.522;27.458;2023-12-20T07:18:05;101344.44;;;5.45;98.34
23419;BME280;11882;42.522;27.458;2023-12-20T07:20:32;101347.72;;;5.59;96.35
23419;BME280;11882;42.522;27.458;2023-12-20T07:22:59;101347.19;;;5.65;95.79
23419;BME280;11882;42.522;27.458;2023-12-20T07:25:27;101353.19;;;5.67;94.53
23419;BME280;11882;42.522;27.458;2023-12-20T07:27:54;101351.28;;;5.78;94.87
23419;BME280;11882;42.522;27.458;2023-12-20T07:30:21;101351.59;;;6.06;94.15
23419;BME280;11882;42.522;27.458;2023-12-20T07:32:50;101344.56;;;6.75;93.07
23419;BME280;11882;42.522;27.458;2023-12-20T07:35:18;101334.25;;;7.21;92.57
23419;BME280;11882;42.522;27.458;2023-12-20T07:37:45;101331.06;;;6.98;90.14
23419;BME280;11882;42.522;27.458;2023-12-20T07:40:12;101325.22;;;7.04;89.52
23419;BME280;11882;42.522;27.458;2023-12-20T07:42:41;101311.09;;;7.42;89.07
23419;BME280;11882;42.522;27.458;2023-12-20T07:45:09;101316.22;;;7.53;88.21
23419;BME280;11882;42.522;27.458;2023-12-20T07:47:37;101318.56;;;8.03;87.00
23419;BME280;11882;42.522;27.458;2023-12-20T07:50:08;101320.09;;;8.05;86.69
23419;BME280;11882;42.522;27.458;2023-12-20T07:52:35;101325.91;;;8.46;86.03
23419;BME280;11882;42.522;27.458;2023-12-20T07:55:02;101321.22;;;8.40;83.31
23419;BME280;11882;42.522;27.458;2023-12-20T07:57:30;101328.00;;;8.70;84.12
23419;BME280;11882;42.522;27.458;2023-12-20T07:59:57;101320.34;;;9.20;83.75
23419;BME280;11882;42.522;27.458;2023-12-20T08:02:24;101316.91;;;9.80;82.82
23419;BME280;11882;42.522;27.458;2023-12-20T08:04:51;101311.22;;;10.00;79.85
23419;BME280;11882;42.522;27.458;2023-12-20T08:07:20;101302.44;;;9.48;79.35
23419;BME280;11882;42.522;27.458;2023-12-20T08:09:47;101299.19;;;9.11;80.51
23419;BME280;11882;42.522;27.458;2023-12-20T08:12:14;101296.09;;;9.41;81.59
23419;BME280;11882;42.522;27.458;2023-12-20T08:14:42;101289.19;;;9.82;80.68
23419;BME280;11882;42.522;27.458;2023-12-20T08:17:09;101280.63;;;9.96;79.48
23419;BME280;11882;42.522;27.458;2023-12-20T08:19:38;101279.84;;;10.12;78.56
23419;BME280;11882;42.522;27.458;2023-12-20T08:22:05;101275.00;;;10.08;78.27
23419;BME280;11882;42.522;27.458;2023-12-20T08:24:33;101272.06;;;11.26;75.64
23419;BME280;11882;42.522;27.458;2023-12-20T08:27:01;101273.34;;;11.62;73.94
23419;BME280;11882;42.522;27.458;2023-12-20T08:29:28;101273.13;;;11.80;71.42
23419;BME280;11882;42.522;27.458;2023-12-20T08:31:55;101259.78;;;11.88;71.42
23419;BME280;11882;42.522;27.458;2023-12-20T08:34:23;101264.63;;;12.24;69.65
23419;BME280;11882;42.522;27.458;2023-12-20T08:36:50;101256.03;;;12.06;69.22
23419;BME280;11882;42.522;27.458;2023-12-20T08:39:18;101244.13;;;11.85;70.32
23419;BME280;11882;42.522;27.458;2023-12-20T08:41:46;101243.38;;;11.52;70.70
23419;BME280;11882;42.522;27.458;2023-12-20T08:44:14;101247.13;;;11.74;70.84
23419;BME280;11882;42.522;27.458;2023-12-20T08:46:41;101251.81;;;11.72;70.19
23419;BME280;11882;42.522;27.458;2023-12-20T08:49:08;101249.47;;;11.85;70.55
23419;BME280;11882;42.522;27.458;2023-12-20T08:51:36;101237.31;;;11.75;70.85
23419;BME280;11882;42.522;27.458;2023-12-20T08:54:05;101222.13;;;11.83;71.88
23419;BME280;11882;42.522;27.458;2023-12-20T08:56:34;101213.66;;;11.08;73.24
23419;BME280;11882;42.522;27.458;2023-12-20T08:59:03;101208.34;;;10.51;76.17
23419;BME280;11882;42.522;27.458;2023-12-20T09:01:30;101212.84;;;10.00;78.07
23419;BME280;11882;42.522;27.458;2023-12-20T09:03:57;101203.56;;;10.13;79.08
23419;BME280;11882;42.522;27.458;2023-12-20T09:06:24;101189.75;;;10.09;79.26
23419;BME280;11882;42.522;27.458;2023-12-20T09:08:51;101188.91;;;10.00;80.10
23419;BME280;11882;42.522;27.458;2023-12-20T09:11:19;101180.94;;;10.00;81.13
23419;BME280;11882;42.522;27.458;2023-12-20T09:13:46;101176.31;;;10.11;82.46
23419;BME280;11882;42.522;27.458;2023-12-20T09:16:15;101170.72;;;10.30;81.62
23419;BME280;11882;42.522;27.458;2023-12-20T09:18:42;101170.72;;;10.38;81.23
23419;BME280;11882;42.522;27.458;2023-12-20T09:21:10;101170.16;;;10.18;80.78
23419;BME280;11882;42.522;27.458;2023-12-20T09:23:37;101167.31;;;10.03;82.15
23419;BME280;11882;42.522;27.458;2023-12-20T09:26:05;101165.16;;;10.15;81.98
23419;BME280;11882;42.522;27.458;2023-12-20T09:28:32;101153.69;;;10.15;81.86
23419;BME280;11882;42.522;27.458;2023-12-20T09:31:04;101156.84;;;10.02;82.09
23419;BME280;11882;42.522;27.458;2023-12-20T09:33:32;101150.47;;;9.79;83.33
23419;BME280;11882;42.522;27.458;2023-12-20T09:36:00;101145.53;;;10.00;82.92
23419;BME280;11882;42.522;27.458;2023-12-20T09:38:27;101138.25;;;10.18;82.13
23419;BME280;11882;42.522;27.458;2023-12-20T09:40:54;101131.41;;;10.08;82.04
23419;BME280;11882;42.522;27.458;2023-12-20T09:43:24;101123.94;;;10.11;82.80
23419;BME280;11882;42.522;27.458;2023-12-20T09:45:53;101121.63;;;10.16;82.54
23419;BME280;11882;42.522;27.458;2023-12-20T09:48:21;101118.03;;;10.50;81.92
23419;BME280;11882;42.522;27.458;2023-12-20T09:50:50;101111.88;;;10.57;81.22
23419;BME280;11882;42.522;27.458;2023-12-20T09:53:18;101110.53;;;10.70;81.14
23419;BME280;11882;42.522;27.458;2023-12-20T09:55:46;101103.88;;;10.65;80.50
23419;BME280;11882;42.522;27.458;2023-12-20T09:58:15;101101.53;;;10.79;81.36
23419;BME280;11882;42.522;27.458;2023-12-20T10:00:42;101101.00;;;11.00;80.35
23419;BME280;11882;42.522;27.458;2023-12-20T10:03:09;101097.25;;;11.25;79.69
23419;BME280;11882;42.522;27.458;2023-12-20T10:05:39;101098.78;;;11.11;79.27
23419;BME280;11882;42.522;27.458;2023-12-20T10:08:11;101092.03;;;10.92;80.22
23419;BME280;11882;42.522;27.458;2023-12-20T10:10:38;101086.75;;;11.23;80.37
23419;BME280;11882;42.522;27.458;2023-12-20T10:13:07;101080.44;;;11.24;80.13
23419;BME280;11882;42.522;27.458;2023-12-20T10:15:35;101081.75;;;11.28;79.69
23419;BME280;11882;42.522;27.458;2023-12-20T10:18:04;101077.81;;;11.08;80.58
23419;BME280;11882;42.522;27.458;2023-12-20T10:20:31;101064.38;;;11.41;80.43
23419;BME280;11882;42.522;27.458;2023-12-20T10:22:59;101051.97;;;11.56;79.11
23419;BME280;11882;42.522;27.458;2023-12-20T10:25:28;101043.84;;;11.72;78.92
23419;BME280;11882;42.522;27.458;2023-12-20T10:28:10;101041.94;;;11.89;78.81
23419;BME280;11882;42.522;27.458;2023-12-20T10:30:38;101035.41;;;12.14;77.71
23419;BME280;11882;42.522;27.458;2023-12-20T10:33:06;101037.06;;;12.15;76.33
23419;BME280;11882;42.522;27.458;2023-12-20T10:35:34;101028.91;;;11.94;76.98
23419;BME280;11882;42.522;27.458;2023-12-20T10:38:04;101023.22;;;11.97;77.55
23419;BME280;11882;42.522;27.458;2023-12-20T10:40:34;101024.00;;;12.20;77.98
23419;BME280;11882;42.522;27.458;2023-12-20T10:43:03;101023.69;;;12.38;76.23
23419;BME280;11882;42.522;27.458;2023-12-20T10:45:31;101015.59;;;12.46;76.07
23419;BME280;11882;42.522;27.458;2023-12-20T10:47:59;101013.28;;;12.43;76.26
23419;BME280;11882;42.522;27.458;2023-12-20T10:50:27;101006.75;;;12.61;76.09
23419;BME280;11882;42.522;27.458;2023-12-20T10:52:55;101009.63;;;12.59;75.30
23419;BME280;11882;42.522;27.458;2023-12-20T10:55:23;101007.50;;;12.54;75.91
23419;BME280;11882;42.522;27.458;2023-12-20T10:57:51;101002.25;;;12.46;76.05
23419;BME280;11882;42.522;27.458;2023-12-20T11:00:20;101001.34;;;12.69;76.26
23419;BME280;11882;42.522;27.458;2023-12-20T11:02:49;101001.22;;;12.77;76.42
23419;BME280;11882;42.522;27.458;2023-12-20T11:05:25;100987.50;;;12.50;78.25
23419;BME280;11882;42.522;27.458;2023-12-20T11:07:59;100985.31;;;12.69;77.90
23419;BME280;11882;42.522;27.458;2023-12-20T11:10:31;100976.72;;;12.88;77.10
23419;BME280;11882;42.522;27.458;2023-12-20T11:13:06;100965.38;;;13.01;77.07
23419;BME280;11882;42.522;27.458;2023-12-20T11:15:35;100976.81;;;12.95;76.91
23419;BME280;11882;42.522;27.458;2023-12-20T11:18:04;100967.03;;;13.16;77.04
23419;BME280;11882;42.522;27.458;2023-12-20T11:20:36;100957.69;;;13.27;76.45
23419;BME280;11882;42.522;27.458;2023-12-20T11:23:04;100959.16;;;13.30;75.90
23419;BME280;11882;42.522;27.458;2023-12-20T11:25:46;100953.84;;;13.15;76.39
23419;BME280;11882;42.522;27.458;2023-12-20T11:28:15;100945.81;;;13.30;76.92
23419;BME280;11882;42.522;27.458;2023-12-20T11:30:48;100941.72;;;13.34;76.11
23419;BME280;11882;42.522;27.458;2023-12-20T11:33:16;100945.16;;;13.28;75.63
23419;BME280;11882;42.522;27.458;2023-12-20T11:35:46;100934.28;;;13.29;75.38
23419;BME280;11882;42.522;27.458;2023-12-20T11:38:14;100931.53;;;13.22;75.04
23419;BME280;11882;42.522;27.458;2023-12-20T11:40:41;100919.22;;;13.07;75.87
23419;BME280;11882;42.522;27.458;2023-12-20T11:43:08;100914.44;;;13.02;76.05
23419;BME280;11882;42.522;27.458;2023-12-20T11:45:37;100914.03;;;13.20;76.28
23419;BME280;11882;42.522;27.458;2023-12-20T11:48:04;100910.88;;;13.31;75.27
23419;BME280;11882;42.522;27.458;2023-12-20T11:50:31;100907.41;;;13.16;74.67
23419;BME280;11882;42.522;27.458;2023-12-20T11:52:58;100889.19;;;13.05;74.62
23419;BME280;11882;42.522;27.458;2023-12-20T11:55:26;100893.69;;;13.04;74.89
23419;BME280;11882;42.522;27.458;2023-12-20T11:57:53;100887.47;;;12.97;74.81
23419;BME280;11882;42.522;27.458;2023-12-20T12:00:20;100884.75;;;12.76;74.86
23419;BME280;11882;42.522;27.458;2023-12-20T12:02:59;100878.34;;;12.55;75.67
23419;BME280;11882;42.522;27.458;2023-12-20T12:05:30;100873.16;;;12.69;75.93
23419;BME280;11882;42.522;27.458;2023-12-20T12:07:58;100862.50;;;12.69;75.54
23419;BME280;11882;42.522;27.458;2023-12-20T12:10:25;100862.03;;;12.65;75.58
23419;BME280;11882;42.522;27.458;2023-12-20T12:12:52;100864.16;;;12.70;76.34
23419;BME280;11882;42.522;27.458;2023-12-20T12:15:19;100865.25;;;12.97;75.63
23419;BME280;11882;42.522;27.458;2023-12-20T12:17:53;100859.63;;;13.06;75.07
23419;BME280;11882;42.522;27.458;2023-12-20T12:20:22;100859.34;;;13.01;74.85
23419;BME280;11882;42.522;27.458;2023-12-20T12:22:58;100845.34;;;12.99;75.30
23419;BME280;11882;42.522;27.458;2023-12-20T12:25:25;100848.81;;;13.14;75.02
23419;BME280;11882;42.522;27.458;2023-12-20T12:27:53;100843.97;;;13.03;74.45
23419;BME280;11882;42.522;27.458;2023-12-20T12:30:21;100840.53;;;13.09;74.82
23419;BME280;11882;42.522;27.458;2023-12-20T12:32:48;100832.72;;;13.29;75.69
23419;BME280;11882;42.522;27.458;2023-12-20T12:35:15;100834.53;;;13.50;73.64
23419;BME280;11882;42.522;27.458;2023-12-20T12:37:44;100838.03;;;13.50;72.57
23419;BME280;11882;42.522;27.458;2023-12-20T12:40:13;100835.25;;;13.37;73.67
23419;BME280;11882;42.522;27.458;2023-12-20T12:42:41;100837.94;;;13.37;74.72
23419;BME280;11882;42.522;27.458;2023-12-20T12:45:09;100829.19;;;13.50;72.98